sensor_id;sensor_type;location;lat;lon;timestamp;pressure;altitude;pressure_sealevel;temperature;humidity
10071;BME280;5074;53.720;10.014;2023-06-26T00:01:30;101015.66;;;19.91;100.00
10071;BME280;5074;53.720;10.014;2023-06-26T00:03:59;101011.44;;;19.87;100.00
10071;BME280;5074;53.720;10.014;2023-06-26T00:06:28;101010.00;;;19.69;100.00
10071;BME280;5074;53.720;10.014;2023-06-26T00:08:56;101006.53;;;19.67;100.00
10071;BME280;5074;53.720;10.014;2023-06-26T00:11:25;101005.44;;;19.56;100.00
10071;BME280;5074;53.720;10.014;2023-06-26T00:13:54;100997.50;;;19.53;100.00
10071;BME280;5074;53.720;10.014;2023-06-26T00:16:22;100997.06;;;19.47;100.00
10071;BME280;5074;53.720;10.014;2023-06-26T00:18:52;100995.34;;;19.46;100.00
10071;BME280;5074;53.720;10.014;2023-06-26T00:21:20;101000.53;;;19.36;100.00
10071;BME280;5074;53.720;10.014;2023-06-26T00:23:48;100992.03;;;19.27;100.00
10071;BME280;5074;53.720;10.014;2023-06-26T00:26:16;100996.06;;;19.35;100.00
10071;BME280;5074;53.720;10.014;2023-06-26T00:28:45;100995.97;;;19.36;100.00
10071;BME280;5074;53.720;10.014;2023-06-26T00:31:13;100995.09;;;19.36;100.00
10071;BME280;5074;53.720;10.014;2023-06-26T00:33:41;100988.47;;;19.27;100.00
10071;BME280;5074;53.720;10.014;2023-06-26T00:36:10;100994.34;;;19.06;100.00
10071;BME280;5074;53.720;10.014;2023-06-26T00:38:38;100984.47;;;18.92;100.00
10071;BME280;5074;53.720;10.014;2023-06-26T00:41:07;100989.09;;;18.90;100.00
10071;BME280;5074;53.720;10.014;2023-06-26T00:43:40;100983.22;;;18.84;100.00
10071;BME280;5074;53.720;10.014;2023-06-26T00:46:09;100983.22;;;18.84;100.00
10071;BME280;5074;53.720;10.014;2023-06-26T00:48:39;100983.31;;;18.82;100.00
10071;BME280;5074;53.720;10.014;2023-06-26T00:51:13;100972.09;;;18.88;100.00
10071;BME280;5074;53.720;10.014;2023-06-26T00:53:42;100973.75;;;18.91;100.00
10071;BME280;5074;53.720;10.014;2023-06-26T00:56:11;100971.69;;;18.95;100.00
10071;BME280;5074;53.720;10.014;2023-06-26T00:58:39;100968.97;;;18.95;100.00
10071;BME280;5074;53.720;10.014;2023-06-26T01:01:07;100972.09;;;18.88;100.00
10071;BME280;5074;53.720;10.014;2023-06-26T01:03:43;100958.97;;;18.82;100.00
10071;BME280;5074;53.720;10.014;2023-06-26T01:06:14;100967.66;;;18.73;100.00
10071;BME280;5074;53.720;10.014;2023-06-26T01:08:44;100967.41;;;18.63;100.00
10071;BME280;5074;53.720;10.014;2023-06-26T01:11:13;100966.53;;;18.63;100.00
10071;BME280;5074;53.720;10.014;2023-06-26T01:13:42;100972.28;;;18.58;100.00
10071;BME280;5074;53.720;10.014;2023-06-26T01:16:12;100958.84;;;18.56;100.00
10071;BME280;5074;53.720;10.014;2023-06-26T01:18:41;100961.56;;;18.56;100.00
10071;BME280;5074;53.720;10.014;2023-06-26T01:21:11;100958.84;;;18.56;100.00
10071;BME280;5074;53.720;10.014;2023-06-26T01:23:48;100957.78;;;18.59;100.00
10071;BME280;5074;53.720;10.014;2023-06-26T01:26:22;100953.84;;;18.50;100.00
10071;BME280;5074;53.720;10.014;2023-06-26T01:28:51;100938.78;;;18.46;100.00
10071;BME280;5074;53.720;10.014;2023-06-26T01:31:21;100949.38;;;18.49;100.00
10071;BME280;5074;53.720;10.014;2023-06-26T01:33:50;100948.63;;;18.33;100.00
10071;BME280;5074;53.720;10.014;2023-06-26T01:36:18;100946.72;;;18.35;100.00
10071;BME280;5074;53.720;10.014;2023-06-26T01:38:47;100940.44;;;18.34;100.00
10071;BME280;5074;53.720;10.014;2023-06-26T01:41:15;100934.56;;;18.28;100.00
10071;BME280;5074;53.720;10.014;2023-06-26T01:43:58;100931.28;;;18.22;100.00
10071;BME280;5074;53.720;10.014;2023-06-26T01:46:34;100926.25;;;18.16;100.00
10071;BME280;5074;53.720;10.014;2023-06-26T01:49:09;100927.03;;;18.18;100.00
10071;BME280;5074;53.720;10.014;2023-06-26T01:51:42;100923.25;;;18.21;100.00
10071;BME280;5074;53.720;10.014;2023-06-26T01:54:16;100916.78;;;18.23;100.00
10071;BME280;5074;53.720;10.014;2023-06-26T01:56:49;100913.03;;;18.26;100.00
10071;BME280;5074;53.720;10.014;2023-06-26T01:59:19;100910.38;;;18.39;100.00
10071;BME280;5074;53.720;10.014;2023-06-26T02:01:48;100908.63;;;18.38;100.00
10071;BME280;5074;53.720;10.014;2023-06-26T02:04:17;100906.41;;;18.45;100.00
10071;BME280;5074;53.720;10.014;2023-06-26T02:06:45;100904.97;;;18.39;100.00
10071;BME280;5074;53.720;10.014;2023-06-26T02:09:13;100902.16;;;18.40;100.00
10071;BME280;5074;53.720;10.014;2023-06-26T02:11:41;100910.06;;;18.44;100.00
10071;BME280;5074;53.720;10.014;2023-06-26T02:14:09;100899.44;;;18.40;100.00
10071;BME280;5074;53.720;10.014;2023-06-26T02:16:40;100899.66;;;18.37;100.00
10071;BME280;5074;53.720;10.014;2023-06-26T02:19:08;100889.69;;;18.38;100.00
10071;BME280;5074;53.720;10.014;2023-06-26T02:21:36;100901.38;;;18.38;100.00
10071;BME280;5074;53.720;10.014;2023-06-26T02:24:05;100906.13;;;18.35;100.00
10071;BME280;5074;53.720;10.014;2023-06-26T02:26:33;100889.91;;;18.35;100.00
10071;BME280;5074;53.720;10.014;2023-06-26T02:29:01;100894.84;;;18.28;100.00
10071;BME280;5074;53.720;10.014;2023-06-26T02:31:30;100890.41;;;18.27;100.00
10071;BME280;5074;53.720;10.014;2023-06-26T02:33:59;100886.72;;;18.28;100.00
10071;BME280;5074;53.720;10.014;2023-06-26T02:36:27;100889.31;;;18.30;100.00
10071;BME280;5074;53.720;10.014;2023-06-26T02:38:55;100885.00;;;18.27;100.00
10071;BME280;5074;53.720;10.014;2023-06-26T02:41:23;100886.81;;;18.27;100.00
10071;BME280;5074;53.720;10.014;2023-06-26T02:43:52;100878.91;;;18.23;100.00
10071;BME280;5074;53.720;10.014;2023-06-26T02:46:20;100876.22;;;18.23;100.00
10071;BME280;5074;53.720;10.014;2023-06-26T02:48:48;100868.84;;;18.26;100.00
10071;BME280;5074;53.720;10.014;2023-06-26T02:51:17;100870.03;;;18.21;100.00
10071;BME280;5074;53.720;10.014;2023-06-26T02:53:45;100863.00;;;18.19;100.00
10071;BME280;5074;53.720;10.014;2023-06-26T02:56:14;100869.38;;;18.18;100.00
10071;BME280;5074;53.720;10.014;2023-06-26T02:58:42;100864.63;;;18.21;100.00
10071;BME280;5074;53.720;10.014;2023-06-26T03:01:10;100865.81;;;18.17;100.00
10071;BME280;5074;53.720;10.014;2023-06-26T03:03:41;100858.34;;;18.21;100.00
10071;BME280;5074;53.720;10.014;2023-06-26T03:06:09;100860.09;;;18.22;100.00
10071;BME280;5074;53.720;10.014;2023-06-26T03:08:39;100856.09;;;18.28;100.00
10071;BME280;5074;53.720;10.014;2023-06-26T03:11:08;100856.09;;;18.28;100.00
10071;BME280;5074;53.720;10.014;2023-06-26T03:13:37;100855.41;;;18.24;100.00
10071;BME280;5074;53.720;10.014;2023-06-26T03:16:05;100844.50;;;18.26;100.00
10071;BME280;5074;53.720;10.014;2023-06-26T03:18:33;100845.06;;;18.31;100.00
10071;BME280;5074;53.720;10.014;2023-06-26T03:21:01;100845.53;;;18.37;100.00
10071;BME280;5074;53.720;10.014;2023-06-26T03:23:29;100852.66;;;18.38;100.00
10071;BME280;5074;53.720;10.014;2023-06-26T03:25:59;100844.44;;;18.40;100.00
10071;BME280;5074;53.720;10.014;2023-06-26T03:28:27;100850.31;;;18.47;100.00
10071;BME280;5074;53.720;10.014;2023-06-26T03:30:55;100844.16;;;18.45;100.00
10071;BME280;5074;53.720;10.014;2023-06-26T03:33:23;100845.13;;;18.44;100.00
10071;BME280;5074;53.720;10.014;2023-06-26T03:35:51;100851.41;;;18.44;100.00
10071;BME280;5074;53.720;10.014;2023-06-26T03:38:21;100846.13;;;18.55;100.00
10071;BME280;5074;53.720;10.014;2023-06-26T03:40:50;100846.81;;;18.59;100.00
10071;BME280;5074;53.720;10.014;2023-06-26T03:43:20;100838.47;;;18.62;100.00
10071;BME280;5074;53.720;10.014;2023-06-26T03:45:48;100844.00;;;18.61;100.00
10071;BME280;5074;53.720;10.014;2023-06-26T03:48:16;100837.09;;;18.69;100.00
10071;BME280;5074;53.720;10.014;2023-06-26T03:50:45;100832.22;;;18.74;100.00
10071;BME280;5074;53.720;10.014;2023-06-26T03:53:13;100836.34;;;18.80;100.00
10071;BME280;5074;53.720;10.014;2023-06-26T03:55:41;100830.06;;;18.80;100.00
10071;BME280;5074;53.720;10.014;2023-06-26T03:58:10;100828.69;;;18.87;100.00
10071;BME280;5074;53.720;10.014;2023-06-26T04:00:39;100822.09;;;18.91;100.00
10071;BME280;5074;53.720;10.014;2023-06-26T04:03:09;100821.44;;;19.00;100.00
10071;BME280;5074;53.720;10.014;2023-06-26T04:05:37;100823.06;;;19.03;100.00
10071;BME280;5074;53.720;10.014;2023-06-26T04:08:06;100819.06;;;19.08;100.00
10071;BME280;5074;53.720;10.014;2023-06-26T04:10:34;100822.00;;;19.18;100.00
10071;BME280;5074;53.720;10.014;2023-06-26T04:13:03;100820.72;;;19.24;100.00
10071;BME280;5074;53.720;10.014;2023-06-26T04:15:31;100815.38;;;19.35;100.00
10071;BME280;5074;53.720;10.014;2023-06-26T04:18:00;100814.28;;;19.38;100.00
10071;BME280;5074;53.720;10.014;2023-06-26T04:20:30;100809.19;;;19.46;100.00
10071;BME280;5074;53.720;10.014;2023-06-26T04:22:58;100806.56;;;19.57;100.00
10071;BME280;5074;53.720;10.014;2023-06-26T04:25:26;100806.88;;;19.66;100.00
10071;BME280;5074;53.720;10.014;2023-06-26T04:27:56;100794.47;;;19.74;100.00
10071;BME280;5074;53.720;10.014;2023-06-26T04:30:24;100797.53;;;19.83;100.00
10071;BME280;5074;53.720;10.014;2023-06-26T04:32:52;100786.22;;;19.89;100.00
10071;BME280;5074;53.720;10.014;2023-06-26T04:35:21;100792.06;;;19.95;100.00
10071;BME280;5074;53.720;10.014;2023-06-26T04:37:50;100789.78;;;20.02;100.00
10071;BME280;5074;53.720;10.014;2023-06-26T04:40:18;100788.44;;;20.08;100.00
10071;BME280;5074;53.720;10.014;2023-06-26T04:42:46;100781.47;;;20.17;100.00
10071;BME280;5074;53.720;10.014;2023-06-26T04:45:14;100785.44;;;20.24;100.00
10071;BME280;5074;53.720;10.014;2023-06-26T04:47:42;100784.84;;;20.32;100.00
10071;BME280;5074;53.720;10.014;2023-06-26T04:50:10;100773.75;;;20.35;100.00
10071;BME280;5074;53.720;10.014;2023-06-26T04:52:39;100766.75;;;20.43;100.00
10071;BME280;5074;53.720;10.014;2023-06-26T04:55:07;100778.88;;;20.51;100.00
10071;BME280;5074;53.720;10.014;2023-06-26T04:57:35;100771.50;;;20.64;100.00
10071;BME280;5074;53.720;10.014;2023-06-26T05:00:04;100769.34;;;20.69;100.00
10071;BME280;5074;53.720;10.014;2023-06-26T05:02:36;100771.56;;;20.75;100.00
10071;BME280;5074;53.720;10.014;2023-06-26T05:05:05;100768.38;;;20.81;100.00
10071;BME280;5074;53.720;10.014;2023-06-26T05:07:33;100766.81;;;20.90;100.00
10071;BME280;5074;53.720;10.014;2023-06-26T05:10:03;100770.00;;;20.95;100.00
10071;BME280;5074;53.720;10.014;2023-06-26T05:12:31;100757.78;;;21.01;100.00
10071;BME280;5074;53.720;10.014;2023-06-26T05:14:59;100753.72;;;21.07;100.00
10071;BME280;5074;53.720;10.014;2023-06-26T05:17:27;100757.19;;;21.09;100.00
10071;BME280;5074;53.720;10.014;2023-06-26T05:19:55;100756.69;;;21.15;100.00
10071;BME280;5074;53.720;10.014;2023-06-26T05:22:24;100753.47;;;21.21;100.00
10071;BME280;5074;53.720;10.014;2023-06-26T05:24:54;100746.03;;;21.23;100.00
10071;BME280;5074;53.720;10.014;2023-06-26T05:27:25;100738.78;;;21.35;100.00
10071;BME280;5074;53.720;10.014;2023-06-26T05:29:53;100740.34;;;21.38;100.00
10071;BME280;5074;53.720;10.014;2023-06-26T05:32:22;100733.94;;;21.39;100.00
10071;BME280;5074;53.720;10.014;2023-06-26T05:34:51;100730.72;;;21.45;100.00
10071;BME280;5074;53.720;10.014;2023-06-26T05:37:26;100722.97;;;21.51;100.00
10071;BME280;5074;53.720;10.014;2023-06-26T05:39:56;100722.94;;;21.63;100.00
10071;BME280;5074;53.720;10.014;2023-06-26T05:42:26;100722.56;;;21.67;100.00
10071;BME280;5074;53.720;10.014;2023-06-26T05:44:54;100717.75;;;21.71;100.00
10071;BME280;5074;53.720;10.014;2023-06-26T05:47:22;100717.34;;;21.76;100.00
10071;BME280;5074;53.720;10.014;2023-06-26T05:49:50;100719.09;;;21.77;100.00
10071;BME280;5074;53.720;10.014;2023-06-26T05:52:19;100723.63;;;21.88;100.00
10071;BME280;5074;53.720;10.014;2023-06-26T05:54:48;100718.28;;;21.97;100.00
10071;BME280;5074;53.720;10.014;2023-06-26T05:57:17;100704.63;;;22.09;100.00
10071;BME280;5074;53.720;10.014;2023-06-26T06:02:21;100703.25;;;22.14;100.00
10071;BME280;5074;53.720;10.014;2023-06-26T06:04:49;100711.72;;;22.21;100.00
10071;BME280;5074;53.720;10.014;2023-06-26T06:07:17;100705.03;;;22.25;100.00
10071;BME280;5074;53.720;10.014;2023-06-26T06:09:46;100704.25;;;22.34;100.00
10071;BME280;5074;53.720;10.014;2023-06-26T06:12:14;100701.78;;;22.31;100.00
10071;BME280;5074;53.720;10.014;2023-06-26T06:14:42;100700.41;;;22.37;100.00
10071;BME280;5074;53.720;10.014;2023-06-26T06:17:10;100698.03;;;22.44;100.00
10071;BME280;5074;53.720;10.014;2023-06-26T06:19:39;100699.50;;;22.48;100.00
10071;BME280;5074;53.720;10.014;2023-06-26T06:22:07;100695.53;;;22.52;100.00
10071;BME280;5074;53.720;10.014;2023-06-26T06:24:35;100693.59;;;22.64;100.00
10071;BME280;5074;53.720;10.014;2023-06-26T06:27:04;100696.25;;;22.85;100.00
10071;BME280;5074;53.720;10.014;2023-06-26T06:29:32;100689.41;;;22.90;100.00
10071;BME280;5074;53.720;10.014;2023-06-26T06:32:00;100677.09;;;22.96;100.00
10071;BME280;5074;53.720;10.014;2023-06-26T06:34:28;100671.38;;;22.99;100.00
10071;BME280;5074;53.720;10.014;2023-06-26T06:36:57;100679.72;;;23.07;100.00
10071;BME280;5074;53.720;10.014;2023-06-26T06:39:26;100674.78;;;23.13;100.00
10071;BME280;5074;53.720;10.014;2023-06-26T06:41:54;100660.91;;;23.26;100.00
10071;BME280;5074;53.720;10.014;2023-06-26T06:44:22;100664.63;;;23.24;100.00
10071;BME280;5074;53.720;10.014;2023-06-26T06:46:50;100664.53;;;23.36;100.00
10071;BME280;5074;53.720;10.014;2023-06-26T06:49:18;100662.53;;;23.48;100.00
10071;BME280;5074;53.720;10.014;2023-06-26T06:51:46;100650.34;;;23.52;100.00
10071;BME280;5074;53.720;10.014;2023-06-26T06:54:16;100647.59;;;23.52;100.00
10071;BME280;5074;53.720;10.014;2023-06-26T06:56:45;100651.78;;;23.66;100.00
10071;BME280;5074;53.720;10.014;2023-06-26T06:59:13;100652.03;;;23.53;100.00
10071;BME280;5074;53.720;10.014;2023-06-26T07:01:41;100642.28;;;23.60;100.00
10071;BME280;5074;53.720;10.014;2023-06-26T07:04:09;100638.28;;;23.64;100.00
10071;BME280;5074;53.720;10.014;2023-06-26T07:06:37;100636.72;;;23.62;100.00
10071;BME280;5074;53.720;10.014;2023-06-26T07:09:05;100633.13;;;23.71;100.00
10071;BME280;5074;53.720;10.014;2023-06-26T07:11:35;100630.56;;;23.79;100.00
10071;BME280;5074;53.720;10.014;2023-06-26T07:14:03;100611.84;;;23.74;100.00
10071;BME280;5074;53.720;10.014;2023-06-26T07:16:31;100632.88;;;23.93;100.00
10071;BME280;5074;53.720;10.014;2023-06-26T07:18:59;100631.84;;;23.95;100.00
10071;BME280;5074;53.720;10.014;2023-06-26T07:21:27;100632.59;;;24.06;100.00
10071;BME280;5074;53.720;10.014;2023-06-26T07:23:55;100642.47;;;24.17;100.00
10071;BME280;5074;53.720;10.014;2023-06-26T07:26:23;100632.97;;;24.21;100.00
10071;BME280;5074;53.720;10.014;2023-06-26T07:29:11;100625.91;;;24.38;100.00
10071;BME280;5074;53.720;10.014;2023-06-26T07:31:39;100627.72;;;24.57;100.00
10071;BME280;5074;53.720;10.014;2023-06-26T07:34:07;100620.38;;;24.58;100.00
10071;BME280;5074;53.720;10.014;2023-06-26T07:36:35;100625.41;;;24.62;100.00
10071;BME280;5074;53.720;10.014;2023-06-26T07:39:03;100619.53;;;24.67;100.00
10071;BME280;5074;53.720;10.014;2023-06-26T07:41:31;100628.13;;;24.72;100.00
10071;BME280;5074;53.720;10.014;2023-06-26T07:43:59;100630.41;;;24.77;100.00
10071;BME280;5074;53.720;10.014;2023-06-26T07:46:29;100623.63;;;24.81;100.00
10071;BME280;5074;53.720;10.014;2023-06-26T07:48:57;100622.91;;;24.89;100.00
10071;BME280;5074;53.720;10.014;2023-06-26T07:51:25;100615.94;;;24.94;100.00
10071;BME280;5074;53.720;10.014;2023-06-26T07:53:53;100618.25;;;24.99;100.00
10071;BME280;5074;53.720;10.014;2023-06-26T07:56:21;100629.88;;;25.01;100.00
10071;BME280;5074;53.720;10.014;2023-06-26T07:58:49;100619.91;;;25.10;100.00
10071;BME280;5074;53.720;10.014;2023-06-26T08:01:17;100618.13;;;25.19;100.00
10071;BME280;5074;53.720;10.014;2023-06-26T08:03:47;100622.13;;;25.24;100.00
10071;BME280;5074;53.720;10.014;2023-06-26T08:06:15;100621.09;;;25.25;100.00
10071;BME280;5074;53.720;10.014;2023-06-26T08:08:43;100612.59;;;25.28;100.00
10071;BME280;5074;53.720;10.014;2023-06-26T08:11:12;100604.84;;;25.34;100.00
10071;BME280;5074;53.720;10.014;2023-06-26T08:13:40;100606.00;;;25.49;100.00
10071;BME280;5074;53.720;10.014;2023-06-26T08:16:08;100599.19;;;25.53;100.00
10071;BME280;5074;53.720;10.014;2023-06-26T08:18:36;100595.06;;;25.67;100.00
10071;BME280;5074;53.720;10.014;2023-06-26T08:21:05;100586.66;;;25.87;100.00
10071;BME280;5074;53.720;10.014;2023-06-26T08:23:36;100583.41;;;25.83;100.00
10071;BME280;5074;53.720;10.014;2023-06-26T08:26:04;100583.94;;;25.87;100.00
10071;BME280;5074;53.720;10.014;2023-06-26T08:28:32;100579.50;;;25.86;100.00
10071;BME280;5074;53.720;10.014;2023-06-26T08:31:00;100578.47;;;25.87;100.00
10071;BME280;5074;53.720;10.014;2023-06-26T08:33:28;100584.28;;;26.02;100.00
10071;BME280;5074;53.720;10.014;2023-06-26T08:35:56;100580.25;;;26.14;100.00
10071;BME280;5074;53.720;10.014;2023-06-26T08:38:26;100567.25;;;26.16;100.00
10071;BME280;5074;53.720;10.014;2023-06-26T08:40:54;100575.66;;;26.14;100.00
10071;BME280;5074;53.720;10.014;2023-06-26T08:43:22;100565.44;;;26.25;100.00
10071;BME280;5074;53.720;10.014;2023-06-26T08:45:50;100576.47;;;26.41;100.00
10071;BME280;5074;53.720;10.014;2023-06-26T08:48:21;100592.69;;;26.61;100.00
10071;BME280;5074;53.720;10.014;2023-06-26T08:50:52;100592.31;;;26.56;100.00
10071;BME280;5074;53.720;10.014;2023-06-26T08:53:25;100599.38;;;26.58;100.00
10071;BME280;5074;53.720;10.014;2023-06-26T08:55:59;100619.03;;;26.54;100.00
10071;BME280;5074;53.720;10.014;2023-06-26T08:58:27;100620.47;;;26.66;100.00
10071;BME280;5074;53.720;10.014;2023-06-26T09:00:56;100628.78;;;26.30;100.00
10071;BME280;5074;53.720;10.014;2023-06-26T09:03:25;100637.34;;;26.27;100.00
10071;BME280;5074;53.720;10.014;2023-06-26T09:05:54;100634.53;;;26.18;100.00
10071;BME280;5074;53.720;10.014;2023-06-26T09:08:23;100647.28;;;26.10;100.00
10071;BME280;5074;53.720;10.014;2023-06-26T09:10:51;100650.50;;;26.23;100.00
10071;BME280;5074;53.720;10.014;2023-06-26T09:13:21;100645.22;;;26.30;100.00
10071;BME280;5074;53.720;10.014;2023-06-26T09:15:56;100655.66;;;26.52;100.00
10071;BME280;5074;53.720;10.014;2023-06-26T09:18:24;100641.47;;;26.57;100.00
10071;BME280;5074;53.720;10.014;2023-06-26T09:20:53;100660.25;;;26.70;100.00
10071;BME280;5074;53.720;10.014;2023-06-26T09:23:22;100655.84;;;26.51;100.00
10071;BME280;5074;53.720;10.014;2023-06-26T09:25:51;100667.47;;;26.27;100.00
10071;BME280;5074;53.720;10.014;2023-06-26T09:28:21;100674.00;;;26.08;100.00
10071;BME280;5074;53.720;10.014;2023-06-26T09:30:49;100674.22;;;26.14;100.00
10071;BME280;5074;53.720;10.014;2023-06-26T09:33:20;100687.66;;;26.26;100.00
10071;BME280;5074;53.720;10.014;2023-06-26T09:35:48;100711.59;;;25.88;100.00
10071;BME280;5074;53.720;10.014;2023-06-26T09:38:16;100731.72;;;24.66;100.00
10071;BME280;5074;53.720;10.014;2023-06-26T09:40:45;100729.69;;;23.99;100.00
10071;BME280;5074;53.720;10.014;2023-06-26T09:43:14;100726.13;;;23.58;100.00
10071;BME280;5074;53.720;10.014;2023-06-26T09:45:44;100746.97;;;23.28;100.00
10071;BME280;5074;53.720;10.014;2023-06-26T09:48:14;100747.09;;;22.96;100.00
10071;BME280;5074;53.720;10.014;2023-06-26T09:50:46;100738.31;;;22.92;100.00
10071;BME280;5074;53.720;10.014;2023-06-26T09:53:35;100739.56;;;22.78;100.00
10071;BME280;5074;53.720;10.014;2023-06-26T09:56:05;100746.19;;;22.85;100.00
10071;BME280;5074;53.720;10.014;2023-06-26T09:58:35;100739.19;;;22.93;100.00
10071;BME280;5074;53.720;10.014;2023-06-26T10:01:05;100748.38;;;22.70;100.00
10071;BME280;5074;53.720;10.014;2023-06-26T10:03:36;100763.59;;;22.52;100.00
10071;BME280;5074;53.720;10.014;2023-06-26T10:06:05;100758.28;;;22.50;100.00
10071;BME280;5074;53.720;10.014;2023-06-26T10:08:34;100777.84;;;22.44;100.00
10071;BME280;5074;53.720;10.014;2023-06-26T10:11:04;100777.28;;;22.29;100.00
10071;BME280;5074;53.720;10.014;2023-06-26T10:13:37;100763.78;;;22.39;100.00
10071;BME280;5074;53.720;10.014;2023-06-26T10:16:08;100758.16;;;22.08;100.00
10071;BME280;5074;53.720;10.014;2023-06-26T10:18:39;100752.22;;;21.59;100.00
10071;BME280;5074;53.720;10.014;2023-06-26T10:21:08;100782.34;;;20.99;100.00
10071;BME280;5074;53.720;10.014;2023-06-26T10:23:39;100787.41;;;20.57;100.00
10071;BME280;5074;53.720;10.014;2023-06-26T10:26:09;100799.97;;;20.23;100.00
10071;BME280;5074;53.720;10.014;2023-06-26T10:28:40;100791.59;;;20.02;100.00
10071;BME280;5074;53.720;10.014;2023-06-26T10:31:12;100807.06;;;19.88;100.00
10071;BME280;5074;53.720;10.014;2023-06-26T10:33:41;100812.75;;;19.59;100.00
10071;BME280;5074;53.720;10.014;2023-06-26T10:36:13;100821.56;;;19.24;100.00
10071;BME280;5074;53.720;10.014;2023-06-26T10:38:49;100837.16;;;19.21;100.00
10071;BME280;5074;53.720;10.014;2023-06-26T10:41:19;100828.91;;;19.22;100.00
10071;BME280;5074;53.720;10.014;2023-06-26T10:44:06;100862.31;;;19.10;100.00
10071;BME280;5074;53.720;10.014;2023-06-26T10:46:49;100849.28;;;18.89;100.00
10071;BME280;5074;53.720;10.014;2023-06-26T10:49:20;100830.16;;;18.78;100.00
10071;BME280;5074;53.720;10.014;2023-06-26T10:51:49;100852.00;;;18.89;100.00
10071;BME280;5074;53.720;10.014;2023-06-26T10:54:19;100845.19;;;18.97;100.00
10071;BME280;5074;53.720;10.014;2023-06-26T10:56:48;100845.09;;;19.11;100.00
10071;BME280;5074;53.720;10.014;2023-06-26T10:59:18;100842.56;;;19.21;100.00
10071;BME280;5074;53.720;10.014;2023-06-26T11:01:56;100842.38;;;19.24;100.00
10071;BME280;5074;53.720;10.014;2023-06-26T11:04:38;100853.00;;;19.27;100.00
10071;BME280;5074;53.720;10.014;2023-06-26T11:07:14;100862.00;;;19.40;100.00
10071;BME280;5074;53.720;10.014;2023-06-26T11:09:54;100864.59;;;19.42;100.00
10071;BME280;5074;53.720;10.014;2023-06-26T11:12:37;100860.56;;;19.35;100.00
10071;BME280;5074;53.720;10.014;2023-06-26T11:15:08;100871.09;;;19.39;100.00
10071;BME280;5074;53.720;10.014;2023-06-26T11:17:39;100884.00;;;19.36;100.00
10071;BME280;5074;53.720;10.014;2023-06-26T11:20:09;100866.00;;;19.48;100.00
10071;BME280;5074;53.720;10.014;2023-06-26T11:22:39;100866.28;;;19.94;100.00
10071;BME280;5074;53.720;10.014;2023-06-26T11:25:09;100872.69;;;19.93;100.00
10071;BME280;5074;53.720;10.014;2023-06-26T11:27:38;100874.88;;;19.88;100.00
10071;BME280;5074;53.720;10.014;2023-06-26T11:30:08;100886.91;;;19.84;100.00
10071;BME280;5074;53.720;10.014;2023-06-26T11:32:38;100883.56;;;19.81;100.00
10071;BME280;5074;53.720;10.014;2023-06-26T11:35:09;100883.53;;;19.93;100.00
10071;BME280;5074;53.720;10.014;2023-06-26T11:37:38;100886.28;;;19.81;100.00
10071;BME280;5074;53.720;10.014;2023-06-26T11:40:16;100893.09;;;19.60;100.00
10071;BME280;5074;53.720;10.014;2023-06-26T11:42:44;100905.13;;;19.31;100.00
10071;BME280;5074;53.720;10.014;2023-06-26T11:45:13;100928.09;;;19.38;100.00
10071;BME280;5074;53.720;10.014;2023-06-26T11:47:43;100917.03;;;19.41;100.00
10071;BME280;5074;53.720;10.014;2023-06-26T11:50:15;100915.44;;;19.38;100.00
10071;BME280;5074;53.720;10.014;2023-06-26T11:52:43;100924.84;;;19.71;100.00
10071;BME280;5074;53.720;10.014;2023-06-26T11:55:12;100927.06;;;19.92;100.00
10071;BME280;5074;53.720;10.014;2023-06-26T11:57:40;100940.66;;;20.16;100.00
10071;BME280;5074;53.720;10.014;2023-06-26T12:00:12;100934.16;;;20.19;100.00
10071;BME280;5074;53.720;10.014;2023-06-26T12:02:40;100949.63;;;20.42;100.00
10071;BME280;5074;53.720;10.014;2023-06-26T12:05:11;100963.53;;;20.62;100.00
10071;BME280;5074;53.720;10.014;2023-06-26T12:07:40;100952.81;;;20.60;100.00
10071;BME280;5074;53.720;10.014;2023-06-26T12:10:10;100956.41;;;21.09;100.00
10071;BME280;5074;53.720;10.014;2023-06-26T12:12:39;100935.03;;;21.05;100.00
10071;BME280;5074;53.720;10.014;2023-06-26T12:15:10;100944.44;;;21.12;100.00
10071;BME280;5074;53.720;10.014;2023-06-26T12:17:38;100933.81;;;21.09;100.00
10071;BME280;5074;53.720;10.014;2023-06-26T12:20:18;100962.00;;;21.19;100.00
10071;BME280;5074;53.720;10.014;2023-06-26T12:22:48;100950.50;;;21.51;100.00
10071;BME280;5074;53.720;10.014;2023-06-26T12:25:22;100948.69;;;21.74;100.00
10071;BME280;5074;53.720;10.014;2023-06-26T12:27:51;100955.97;;;21.96;100.00
10071;BME280;5074;53.720;10.014;2023-06-26T12:30:19;100956.72;;;22.10;100.00
10071;BME280;5074;53.720;10.014;2023-06-26T12:32:47;100943.94;;;22.55;100.00
10071;BME280;5074;53.720;10.014;2023-06-26T12:35:15;100943.53;;;23.04;100.00
10071;BME280;5074;53.720;10.014;2023-06-26T12:37:45;100959.03;;;24.19;100.00
10071;BME280;5074;53.720;10.014;2023-06-26T12:40:17;100968.09;;;24.70;100.00
10071;BME280;5074;53.720;10.014;2023-06-26T12:42:46;100952.78;;;23.76;100.00
10071;BME280;5074;53.720;10.014;2023-06-26T12:45:15;100950.78;;;23.47;100.00
10071;BME280;5074;53.720;10.014;2023-06-26T12:48:07;100950.56;;;23.06;100.00
10071;BME280;5074;53.720;10.014;2023-06-26T12:50:38;100968.00;;;23.48;100.00
10071;BME280;5074;53.720;10.014;2023-06-26T12:53:08;100949.78;;;23.27;100.00
10071;BME280;5074;53.720;10.014;2023-06-26T12:55:36;100991.78;;;23.46;100.00